createdAt,value
2018-04-18T00:00:22.379Z,0
2018-04-18T00:01:23.089Z,0
2018-04-18T00:02:23.723Z,0
2018-04-18T00:03:24.396Z,0
2018-04-18T00:04:25.069Z,0
2018-04-18T00:05:25.739Z,0
2018-04-18T00:06:26.407Z,0
2018-04-18T00:07:27.078Z,0
2018-04-18T00:08:27.748Z,0
2018-04-18T00:09:28.418Z,0
2018-04-18T00:10:29.088Z,0
2018-04-18T00:11:29.760Z,0
2018-04-18T00:12:30.432Z,0
2018-04-18T00:13:31.105Z,0
2018-04-18T00:14:31.781Z,0
2018-04-18T00:15:32.451Z,0
2018-04-18T00:16:33.121Z,0
2018-04-18T00:17:33.791Z,0
2018-04-18T00:18:34.456Z,0
2018-04-18T00:19:35.126Z,0
2018-04-18T00:20:35.796Z,0
2018-04-18T00:21:36.464Z,0
2018-04-18T00:22:37.143Z,0
2018-04-18T00:23:37.814Z,0
2018-04-18T00:24:38.489Z,0
2018-04-18T00:25:39.161Z,0
2018-04-18T00:26:39.835Z,0
2018-04-18T00:27:40.505Z,0
2018-04-18T00:28:41.186Z,0
2018-04-18T00:29:41.858Z,0
2018-04-18T00:30:42.531Z,0
2018-04-18T00:31:43.201Z,0
2018-04-18T00:32:43.872Z,0
2018-04-18T00:33:44.548Z,0
2018-04-18T00:34:45.219Z,0
2018-04-18T00:35:45.886Z,0
2018-04-18T00:36:46.558Z,0
2018-04-18T00:37:47.226Z,0
2018-04-18T00:38:47.894Z,0
2018-04-18T00:39:48.562Z,0
2018-04-18T00:40:49.233Z,0
2018-04-18T00:41:49.907Z,0
2018-04-18T00:42:50.574Z,0
2018-04-18T00:43:51.248Z,0
2018-04-18T00:44:51.915Z,0
2018-04-18T00:45:52.583Z,0
2018-04-18T00:46:53.255Z,0
2018-04-18T00:47:53.925Z,0
2018-04-18T00:48:54.603Z,0
2018-04-18T00:49:55.275Z,0
2018-04-18T00:50:55.949Z,0
2018-04-18T00:51:56.618Z,0
2018-04-18T00:52:57.291Z,0
2018-04-18T00:53:57.958Z,0
2018-04-18T00:54:58.631Z,0
2018-04-18T00:55:59.300Z,0
2018-04-18T00:56:59.975Z,0
2018-04-18T00:58:00.647Z,0
2018-04-18T00:59:01.344Z,0
2018-04-18T01:00:02.014Z,0
2018-04-18T01:01:02.686Z,0
2018-04-18T01:02:03.352Z,0
2018-04-18T01:03:04.022Z,0
2018-04-18T01:04:04.696Z,0
2018-04-18T01:05:05.363Z,0
2018-04-18T01:06:06.030Z,0
2018-04-18T01:07:06.699Z,0
2018-04-18T01:08:07.369Z,0
2018-04-18T01:09:08.042Z,0
2018-04-18T01:10:08.717Z,0
2018-04-18T01:11:09.389Z,0
2018-04-18T01:12:10.058Z,0
2018-04-18T01:13:10.730Z,0
2018-04-18T01:14:11.401Z,0
2018-04-18T01:15:12.075Z,0
2018-04-18T01:16:12.745Z,0
2018-04-18T01:17:13.418Z,0
2018-04-18T01:18:14.091Z,0
2018-04-18T01:19:14.761Z,0
2018-04-18T01:20:15.436Z,0
2018-04-18T01:21:16.104Z,0
2018-04-18T01:22:16.790Z,0
2018-04-18T01:23:17.462Z,0
2018-04-18T01:24:18.134Z,0
2018-04-18T01:25:18.802Z,0
2018-04-18T01:26:19.471Z,0
2018-04-18T01:27:20.142Z,0
2018-04-18T01:28:20.811Z,0
2018-04-18T01:29:21.479Z,0
2018-04-18T01:30:22.147Z,0
2018-04-18T01:31:22.817Z,0
2018-04-18T01:32:23.486Z,0
2018-04-18T01:33:24.158Z,0
2018-04-18T01:34:24.839Z,0
2018-04-18T01:35:25.508Z,0
2018-04-18T01:36:26.174Z,0
2018-04-18T01:37:26.845Z,0
2018-04-18T01:38:27.517Z,0
2018-04-18T01:39:28.188Z,0
2018-04-18T01:40:28.863Z,0
2018-04-18T01:41:29.534Z,0
2018-04-18T01:42:30.200Z,0
2018-04-18T01:43:30.870Z,0
2018-04-18T01:44:31.541Z,0
2018-04-18T01:45:32.218Z,0
2018-04-18T01:46:32.888Z,0
2018-04-18T01:47:33.556Z,0
2018-04-18T01:48:34.226Z,0
2018-04-18T01:49:34.900Z,0
2018-04-18T01:50:35.575Z,0
2018-04-18T01:51:36.246Z,0
2018-04-18T01:52:36.913Z,0
2018-04-18T01:53:37.593Z,0
2018-04-18T01:54:38.258Z,0
2018-04-18T01:55:38.932Z,0
2018-04-18T01:56:39.603Z,0
2018-04-18T01:57:40.277Z,0
2018-04-18T01:58:40.947Z,0
2018-04-18T01:59:41.617Z,0
2018-04-18T02:00:42.288Z,0
2018-04-18T02:01:42.957Z,0
2018-04-18T02:02:43.623Z,0
2018-04-18T02:03:44.295Z,0
2018-04-18T02:04:44.967Z,0
2018-04-18T02:05:45.641Z,0
2018-04-18T02:06:46.312Z,0
2018-04-18T02:07:46.976Z,0
2018-04-18T02:08:47.644Z,0
2018-04-18T02:09:48.315Z,0
2018-04-18T02:10:48.982Z,0
2018-04-18T02:11:49.655Z,0
2018-04-18T02:12:50.322Z,0
2018-04-18T02:13:50.993Z,0
2018-04-18T02:14:51.667Z,0
2018-04-18T02:15:52.332Z,0
2018-04-18T02:16:53.001Z,0
2018-04-18T02:17:53.674Z,0
2018-04-18T02:18:54.342Z,0
2018-04-18T02:19:55.013Z,0
2018-04-18T02:20:55.680Z,0
2018-04-18T02:21:56.349Z,0
2018-04-18T02:22:57.020Z,0
2018-04-18T02:23:57.688Z,0
2018-04-18T02:24:58.356Z,0
2018-04-18T02:25:59.027Z,0
2018-04-18T02:26:59.696Z,0
2018-04-18T02:28:00.370Z,0
2018-04-18T02:29:01.037Z,0
2018-04-18T02:30:01.779Z,0
2018-04-18T02:31:02.599Z,0
2018-04-18T02:32:03.265Z,0
2018-04-18T02:33:03.932Z,0
2018-04-18T02:34:04.602Z,0
2018-04-18T02:35:05.275Z,0
2018-04-18T02:36:05.943Z,0
2018-04-18T02:37:06.612Z,0
2018-04-18T02:38:07.289Z,0
2018-04-18T02:39:07.960Z,0
2018-04-18T02:40:08.633Z,0
2018-04-18T02:41:09.305Z,0
2018-04-18T02:42:09.977Z,0
2018-04-18T02:43:10.648Z,0
2018-04-18T02:44:11.313Z,0
2018-04-18T02:45:11.985Z,0
2018-04-18T02:46:12.652Z,0
2018-04-18T02:47:13.326Z,0
2018-04-18T02:48:13.998Z,0
2018-04-18T02:49:14.676Z,0
2018-04-18T02:50:15.345Z,0
2018-04-18T02:51:16.010Z,0
2018-04-18T02:52:16.678Z,0
2018-04-18T02:53:17.349Z,0
2018-04-18T02:54:18.017Z,0
2018-04-18T02:55:18.682Z,0
2018-04-18T02:56:19.358Z,0
2018-04-18T02:57:20.019Z,0
2018-04-18T02:58:20.688Z,0
2018-04-18T02:59:21.364Z,0
2018-04-18T03:00:22.032Z,0
2018-04-18T03:01:22.697Z,0
2018-04-18T03:02:23.370Z,0
2018-04-18T03:03:24.044Z,0
2018-04-18T03:04:24.712Z,0
2018-04-18T03:06:26.052Z,0
2018-04-18T03:07:26.725Z,0
2018-04-18T03:08:27.395Z,0
2018-04-18T03:09:28.074Z,0
2018-04-18T03:10:28.742Z,0
2018-04-18T03:11:29.418Z,0
2018-04-18T03:12:30.094Z,0
2018-04-18T03:13:30.760Z,0
2018-04-18T03:14:31.430Z,0
2018-04-18T03:15:32.097Z,0
2018-04-18T03:16:32.765Z,0
2018-04-18T03:17:33.484Z,0
2018-04-18T03:18:34.105Z,0
2018-04-18T03:19:34.771Z,0
2018-04-18T03:20:35.440Z,0
2018-04-18T03:21:36.113Z,0
2018-04-18T03:22:36.788Z,0
2018-04-18T03:23:37.459Z,0
2018-04-18T03:24:38.126Z,0
2018-04-18T03:25:38.794Z,0
2018-04-18T03:26:39.525Z,0
2018-04-18T03:27:40.129Z,0
2018-04-18T03:28:40.793Z,0
2018-04-18T03:29:41.460Z,0
2018-04-18T03:30:42.128Z,0
2018-04-18T03:31:42.801Z,0
2018-04-18T03:32:43.484Z,0
2018-04-18T03:33:44.147Z,0
2018-04-18T03:34:44.815Z,0
2018-04-18T03:35:45.483Z,0
2018-04-18T03:36:46.156Z,0
2018-04-18T03:37:46.823Z,0
2018-04-18T03:38:47.490Z,0
2018-04-18T03:39:48.159Z,0
2018-04-18T03:40:48.874Z,0
2018-04-18T03:41:49.498Z,0
2018-04-18T03:42:50.165Z,0
2018-04-18T03:43:50.833Z,0
2018-04-18T03:44:51.501Z,0
2018-04-18T03:45:52.168Z,0
2018-04-18T03:46:52.834Z,0
2018-04-18T03:47:53.501Z,0
2018-04-18T03:48:54.167Z,0
2018-04-18T03:49:54.836Z,0
2018-04-18T03:50:55.505Z,0
2018-04-18T03:51:56.173Z,0
2018-04-18T03:52:56.842Z,0
2018-04-18T03:53:57.517Z,0
2018-04-18T03:54:58.179Z,0
2018-04-18T03:55:58.846Z,0
2018-04-18T03:56:59.514Z,0
2018-04-18T03:58:00.186Z,0
2018-04-18T03:59:00.855Z,0
2018-04-18T04:00:01.529Z,0
2018-04-18T04:01:02.198Z,0
2018-04-18T04:02:02.865Z,0
2018-04-18T04:03:03.528Z,0
2018-04-18T04:04:04.196Z,0
2018-04-18T04:05:04.868Z,0
2018-04-18T04:06:05.534Z,0
2018-04-18T04:07:06.210Z,0
2018-04-18T04:08:06.886Z,0
2018-04-18T04:09:07.552Z,0
2018-04-18T04:10:08.220Z,0
2018-04-18T04:11:08.889Z,0
2018-04-18T04:12:09.559Z,0
2018-04-18T04:13:10.230Z,0
2018-04-18T04:14:10.901Z,0
2018-04-18T04:15:11.565Z,0
2018-04-18T04:16:12.236Z,0
2018-04-18T04:17:12.907Z,0
2018-04-18T04:18:13.579Z,0
2018-04-18T04:19:14.252Z,0
2018-04-18T04:20:14.931Z,5
2018-04-18T04:21:15.600Z,5
2018-04-18T04:22:16.270Z,5
2018-04-18T04:23:16.942Z,5
2018-04-18T04:24:17.614Z,5
2018-04-18T04:25:18.284Z,5
2018-04-18T04:26:18.955Z,5
2018-04-18T04:27:19.623Z,5
2018-04-18T04:28:20.300Z,10
2018-04-18T04:29:20.973Z,10
2018-04-18T04:30:21.642Z,10
2018-04-18T04:31:22.315Z,10
2018-04-18T04:32:22.988Z,10
2018-04-18T04:33:23.659Z,10
2018-04-18T04:34:24.331Z,15
2018-04-18T04:35:25.004Z,15
2018-04-18T04:36:25.676Z,15
2018-04-18T04:37:26.347Z,15
2018-04-18T04:38:27.020Z,15
2018-04-18T04:39:27.693Z,15
2018-04-18T04:40:28.363Z,20
2018-04-18T04:41:29.030Z,20
2018-04-18T04:42:29.701Z,20
2018-04-18T04:43:30.381Z,20
2018-04-18T04:44:31.053Z,20
2018-04-18T04:45:31.723Z,25
2018-04-18T04:46:32.392Z,25
2018-04-18T04:47:33.062Z,25
2018-04-18T04:48:33.734Z,25
2018-04-18T04:49:34.409Z,25
2018-04-18T04:50:35.082Z,25
2018-04-18T04:51:35.761Z,30
2018-04-18T04:52:36.440Z,30
2018-04-18T04:53:37.107Z,30
2018-04-18T04:54:37.785Z,30
2018-04-18T04:55:38.456Z,30
2018-04-18T04:56:39.134Z,35
2018-04-18T04:57:39.812Z,35
2018-04-18T04:58:40.489Z,35
2018-04-18T04:59:41.159Z,35
2018-04-18T05:00:41.838Z,35
2018-04-18T05:01:42.506Z,40
2018-04-18T05:02:43.178Z,40
2018-04-18T05:03:43.848Z,40
2018-04-18T05:04:44.521Z,40
2018-04-18T05:05:45.194Z,45
2018-04-18T05:06:45.868Z,45
2018-04-18T05:07:46.543Z,50
2018-04-18T05:08:47.212Z,50
2018-04-18T05:09:47.885Z,50
2018-04-18T05:10:48.557Z,50
2018-04-18T05:11:49.224Z,50
2018-04-18T05:12:49.896Z,50
2018-04-18T05:13:50.567Z,50
2018-04-18T05:14:51.240Z,50
2018-04-18T05:15:51.914Z,55
2018-04-18T05:16:52.589Z,55
2018-04-18T05:17:53.261Z,55
2018-04-18T05:18:53.932Z,55
2018-04-18T05:19:54.598Z,55
2018-04-18T05:20:55.279Z,55
2018-04-18T05:21:55.955Z,55
2018-04-18T05:22:56.620Z,55
2018-04-18T05:23:57.291Z,60
2018-04-18T05:24:57.962Z,60
2018-04-18T05:25:58.631Z,60
2018-04-18T05:26:59.310Z,60
2018-04-18T05:27:59.982Z,60
2018-04-18T05:29:00.657Z,60
2018-04-18T05:30:01.330Z,65
2018-04-18T05:31:02.001Z,65
2018-04-18T05:32:02.673Z,65
2018-04-18T05:33:03.345Z,65
2018-04-18T05:34:04.028Z,65
2018-04-18T05:35:04.699Z,70
2018-04-18T05:36:05.377Z,70
2018-04-18T05:37:06.057Z,70
2018-04-18T05:38:06.725Z,70
2018-04-18T05:39:07.397Z,70
2018-04-18T05:40:08.070Z,70
2018-04-18T05:41:08.743Z,75
2018-04-18T05:42:09.417Z,75
2018-04-18T05:43:10.087Z,75
2018-04-18T05:44:10.762Z,75
2018-04-18T05:45:11.471Z,75
2018-04-18T05:46:12.111Z,75
2018-04-18T05:47:12.785Z,75
2018-04-18T05:48:13.466Z,75
2018-04-18T05:49:14.135Z,75
2018-04-18T05:50:14.807Z,80
2018-04-18T05:51:15.487Z,80
2018-04-18T05:52:16.165Z,80
2018-04-18T05:53:16.838Z,80
2018-04-18T05:54:17.507Z,80
2018-04-18T05:55:18.229Z,80
2018-04-18T05:56:18.858Z,80
2018-04-18T05:57:19.526Z,80
2018-04-18T05:58:20.202Z,85
2018-04-18T05:59:20.871Z,85
2018-04-18T06:00:21.541Z,85
2018-04-18T06:01:22.215Z,85
2018-04-18T06:02:22.886Z,85
2018-04-18T06:03:23.557Z,85
2018-04-18T06:04:24.231Z,85
2018-04-18T06:05:24.907Z,85
2018-04-18T06:06:25.583Z,85
2018-04-18T06:07:26.263Z,90
2018-04-18T06:08:26.933Z,90
2018-04-18T06:09:27.605Z,90
2018-04-18T06:10:28.276Z,90
2018-04-18T06:11:28.951Z,90
2018-04-18T06:12:29.623Z,90
2018-04-18T06:13:30.292Z,90
2018-04-18T06:14:30.967Z,90
2018-04-18T06:15:31.643Z,90
2018-04-18T06:16:32.320Z,95
2018-04-18T06:17:32.993Z,95
2018-04-18T06:18:33.671Z,95
2018-04-18T06:19:34.349Z,95
2018-04-18T06:20:35.030Z,95
2018-04-18T06:21:35.699Z,95
2018-04-18T06:22:36.371Z,95
2018-04-18T06:23:37.044Z,95
2018-04-18T06:24:37.716Z,95
2018-04-18T06:25:38.401Z,95
2018-04-18T06:26:39.074Z,95
2018-04-18T06:27:39.754Z,100
2018-04-18T06:28:40.435Z,100
2018-04-18T06:29:41.102Z,100
2018-04-18T06:30:41.777Z,100
2018-04-18T06:31:42.452Z,100
2018-04-18T06:32:43.128Z,100
2018-04-18T06:33:43.802Z,100
2018-04-18T06:34:44.477Z,100
2018-04-18T06:35:45.149Z,100
2018-04-18T06:36:45.829Z,100
2018-04-18T06:37:46.505Z,100
2018-04-18T06:38:47.182Z,100
2018-04-18T06:39:47.856Z,100
2018-04-18T06:40:48.531Z,105
2018-04-18T06:41:49.213Z,105
2018-04-18T06:42:49.891Z,105
2018-04-18T06:43:50.565Z,105
2018-04-18T06:44:51.244Z,105
2018-04-18T06:45:51.924Z,105
2018-04-18T06:46:52.594Z,105
2018-04-18T06:47:53.270Z,105
2018-04-18T06:48:53.946Z,105
2018-04-18T06:49:54.623Z,105
2018-04-18T06:50:55.310Z,105
2018-04-18T06:51:55.981Z,105
2018-04-18T06:52:56.655Z,105
2018-04-18T06:53:57.330Z,105
2018-04-18T06:54:58.002Z,110
2018-04-18T06:55:58.685Z,110
2018-04-18T06:56:59.358Z,110
2018-04-18T06:58:00.044Z,110
2018-04-18T06:59:00.717Z,110
2018-04-18T07:00:01.393Z,110
2018-04-18T07:01:02.069Z,110
2018-04-18T07:02:02.749Z,110
2018-04-18T07:03:03.428Z,110
2018-04-18T07:04:04.102Z,110
2018-04-18T07:05:04.783Z,110
2018-04-18T07:06:05.456Z,110
2018-04-18T07:07:06.137Z,110
2018-04-18T07:08:06.815Z,110
2018-04-18T07:09:07.493Z,110
2018-04-18T07:10:08.165Z,110
2018-04-18T07:11:08.886Z,110
2018-04-18T07:12:09.530Z,110
2018-04-18T07:13:10.203Z,115
2018-04-18T07:14:10.880Z,115
2018-04-18T07:15:11.555Z,115
2018-04-18T07:16:12.231Z,115
2018-04-18T07:17:12.915Z,115
2018-04-18T07:18:13.590Z,115
2018-04-18T07:19:14.270Z,115
2018-04-18T07:20:14.947Z,115
2018-04-18T07:21:15.621Z,115
2018-04-18T07:22:16.313Z,115
2018-04-18T07:23:16.989Z,115
2018-04-18T07:24:17.671Z,115
2018-04-18T07:25:18.347Z,115
2018-04-18T07:26:19.029Z,115
2018-04-18T07:27:19.706Z,115
2018-04-18T07:28:20.383Z,115
2018-04-18T07:29:21.067Z,115
2018-04-18T07:30:21.744Z,115
2018-04-18T07:31:22.422Z,115
2018-04-18T07:32:23.095Z,120
2018-04-18T07:33:23.770Z,120
2018-04-18T07:34:24.480Z,120
2018-04-18T07:35:25.124Z,120
2018-04-18T07:36:25.811Z,120
2018-04-18T07:37:26.509Z,120
2018-04-18T07:38:27.187Z,120
2018-04-18T07:39:27.863Z,120
2018-04-18T07:40:28.542Z,120
2018-04-18T07:41:29.218Z,120
2018-04-18T07:42:29.896Z,120
2018-04-18T07:43:30.570Z,120
2018-04-18T07:44:31.246Z,120
2018-04-18T07:45:31.930Z,120
2018-04-18T07:46:32.606Z,120
2018-04-18T07:47:33.285Z,120
2018-04-18T07:48:33.957Z,120
2018-04-18T07:49:34.633Z,120
2018-04-18T07:50:35.312Z,125
2018-04-18T07:51:35.988Z,125
2018-04-18T07:52:36.667Z,125
2018-04-18T07:53:37.349Z,125
2018-04-18T07:54:38.022Z,125
2018-04-18T07:55:38.699Z,125
2018-04-18T07:56:39.378Z,125
2018-04-18T07:57:40.056Z,125
2018-04-18T07:58:40.737Z,125
2018-04-18T07:59:41.414Z,125
2018-04-18T08:00:42.101Z,125
2018-04-18T08:01:42.776Z,125
2018-04-18T08:02:43.454Z,125
2018-04-18T08:03:44.135Z,125
2018-04-18T08:04:44.813Z,125
2018-04-18T08:05:45.489Z,125
2018-04-18T08:06:46.165Z,125
2018-04-18T08:07:47.064Z,125
2018-04-18T08:08:47.744Z,125
2018-04-18T08:09:48.419Z,125
2018-04-18T08:10:49.102Z,130
2018-04-18T08:11:49.775Z,130
2018-04-18T08:12:50.453Z,130
2018-04-18T08:13:51.134Z,130
2018-04-18T08:14:51.843Z,130
2018-04-18T08:15:52.506Z,130
2018-04-18T08:16:53.185Z,130
2018-04-18T08:17:53.873Z,130
2018-04-18T08:18:54.562Z,130
2018-04-18T08:19:55.236Z,130
2018-04-18T08:20:55.912Z,130
2018-04-18T08:21:56.593Z,130
2018-04-18T08:22:57.267Z,130
2018-04-18T08:23:57.944Z,130
2018-04-18T08:24:58.618Z,130
2018-04-18T08:25:59.299Z,130
2018-04-18T08:26:59.980Z,130
2018-04-18T08:28:00.662Z,130
2018-04-18T08:29:01.340Z,135
2018-04-18T08:30:02.019Z,135
2018-04-18T08:31:02.711Z,135
2018-04-18T08:32:03.462Z,135
2018-04-18T08:33:04.137Z,135
2018-04-18T08:34:04.873Z,135
2018-04-18T08:35:05.494Z,135
2018-04-18T08:36:06.181Z,135
2018-04-18T08:37:06.860Z,135
2018-04-18T08:38:07.536Z,135
2018-04-18T08:39:08.215Z,135
2018-04-18T08:40:08.895Z,135
2018-04-18T08:41:09.573Z,135
2018-04-18T08:42:10.251Z,135
2018-04-18T08:43:10.929Z,140
2018-04-18T08:44:11.605Z,140
2018-04-18T08:45:12.285Z,140
2018-04-18T08:46:12.975Z,140
2018-04-18T08:47:13.658Z,140
2018-04-18T08:48:14.341Z,140
2018-04-18T08:49:15.026Z,140
2018-04-18T08:50:15.706Z,140
2018-04-18T08:51:16.379Z,140
2018-04-18T08:52:17.058Z,140
2018-04-18T08:53:17.740Z,140
2018-04-18T08:54:18.420Z,145
2018-04-18T08:55:19.095Z,145
2018-04-18T08:56:19.770Z,145
2018-04-18T08:57:20.450Z,145
2018-04-18T08:58:21.128Z,145
2018-04-18T08:59:21.813Z,145
2018-04-18T09:00:22.493Z,145
2018-04-18T09:01:23.188Z,145
2018-04-18T09:02:23.867Z,145
2018-04-18T09:03:24.547Z,145
2018-04-18T09:04:25.228Z,145
2018-04-18T09:05:25.912Z,150
2018-04-18T09:06:26.599Z,150
2018-04-18T09:07:27.270Z,150
2018-04-18T09:08:27.948Z,150
2018-04-18T09:09:28.622Z,150
2018-04-18T09:10:29.308Z,150
2018-04-18T09:11:29.989Z,150
2018-04-18T09:12:30.666Z,150
2018-04-18T09:13:31.344Z,150
2018-04-18T09:14:32.035Z,150
2018-04-18T09:15:32.703Z,150
2018-04-18T09:16:33.382Z,150
2018-04-18T09:17:34.062Z,150
2018-04-18T09:18:34.739Z,155
2018-04-18T09:19:35.425Z,155
2018-04-18T09:20:36.104Z,155
2018-04-18T09:21:36.784Z,155
2018-04-18T09:22:37.470Z,150
2018-04-18T09:23:38.147Z,150
2018-04-18T09:24:38.827Z,150
2018-04-18T09:25:39.504Z,150
2018-04-18T09:26:40.183Z,150
2018-04-18T09:27:40.862Z,155
2018-04-18T09:28:41.542Z,155
2018-04-18T09:29:42.227Z,155
2018-04-18T09:30:42.904Z,155
2018-04-18T09:31:43.802Z,155
2018-04-18T09:32:44.483Z,155
2018-04-18T09:33:45.159Z,155
2018-04-18T09:34:45.838Z,155
2018-04-18T09:35:46.520Z,155
2018-04-18T09:36:47.198Z,160
2018-04-18T09:37:47.883Z,165
2018-04-18T09:38:48.569Z,160
2018-04-18T09:39:49.251Z,160
2018-04-18T09:40:49.934Z,160
2018-04-18T09:41:50.657Z,160
2018-04-18T09:42:51.300Z,160
2018-04-18T09:43:51.969Z,165
2018-04-18T09:44:52.657Z,165
2018-04-18T09:45:53.337Z,165
2018-04-18T09:46:54.024Z,165
2018-04-18T09:47:54.923Z,165
2018-04-18T09:48:55.604Z,165
2018-04-18T09:49:56.277Z,165
2018-04-18T09:50:56.965Z,165
2018-04-18T09:51:57.644Z,165
2018-04-18T09:52:58.322Z,170
2018-04-18T09:53:59.012Z,170
2018-04-18T09:54:59.700Z,170
2018-04-18T09:56:00.376Z,170
2018-04-18T09:57:01.055Z,170
2018-04-18T09:58:01.737Z,170
2018-04-18T09:59:02.417Z,170
2018-04-18T10:00:03.098Z,170
2018-04-18T10:01:03.779Z,170
2018-04-18T10:02:04.460Z,175
2018-04-18T10:03:05.138Z,175
2018-04-18T10:04:05.841Z,175
2018-04-18T10:05:06.505Z,180
2018-04-18T10:06:07.203Z,180
2018-04-18T10:07:07.957Z,180
2018-04-18T10:08:08.635Z,180
2018-04-18T10:09:09.316Z,180
2018-04-18T10:10:10.020Z,180
2018-04-18T10:11:10.699Z,180
2018-04-18T10:12:11.382Z,180
2018-04-18T10:13:12.062Z,185
2018-04-18T10:14:12.743Z,185
2018-04-18T10:15:13.424Z,185
2018-04-18T10:16:14.201Z,185
2018-04-18T10:17:14.813Z,185
2018-04-18T10:18:15.493Z,190
2018-04-18T10:19:16.173Z,190
2018-04-18T10:20:16.855Z,190
2018-04-18T10:21:17.531Z,190
2018-04-18T10:22:18.212Z,195
2018-04-18T10:23:18.891Z,190
2018-04-18T10:24:19.577Z,190
2018-04-18T10:25:20.258Z,195
2018-04-18T10:26:20.937Z,200
2018-04-18T10:27:21.619Z,200
2018-04-18T10:28:22.301Z,205
2018-04-18T10:29:22.985Z,200
2018-04-18T10:30:23.664Z,205
2018-04-18T10:31:24.378Z,205
2018-04-18T10:32:25.035Z,205
2018-04-18T10:33:25.719Z,205
2018-04-18T10:34:26.401Z,205
2018-04-18T10:35:27.086Z,205
2018-04-18T10:36:27.764Z,210
2018-04-18T10:37:28.445Z,205
2018-04-18T10:38:29.134Z,210
2018-04-18T10:39:29.815Z,210
2018-04-18T10:40:30.498Z,210
2018-04-18T10:41:31.176Z,215
2018-04-18T10:42:31.871Z,215
2018-04-18T10:43:32.551Z,215
2018-04-18T10:44:33.232Z,215
2018-04-18T10:45:33.916Z,215
2018-04-18T10:46:34.593Z,220
2018-04-18T10:47:35.276Z,220
2018-04-18T10:48:35.962Z,220
2018-04-18T10:49:36.645Z,225
2018-04-18T10:50:37.326Z,225
2018-04-18T10:51:38.009Z,225
2018-04-18T10:52:38.690Z,225
2018-04-18T10:53:39.370Z,225
2018-04-18T10:54:40.049Z,230
2018-04-18T10:55:40.733Z,235
2018-04-18T10:56:41.416Z,235
2018-04-18T10:57:42.095Z,230
2018-04-18T10:58:42.778Z,230
2018-04-18T10:59:43.417Z,235
2018-04-18T11:00:44.152Z,235
2018-04-18T11:01:44.834Z,235
2018-04-18T11:02:45.516Z,235
2018-04-18T11:03:46.197Z,240
2018-04-18T11:04:46.879Z,235
2018-04-18T11:05:47.562Z,235
2018-04-18T11:06:48.247Z,235
2018-04-18T11:07:48.927Z,240
2018-04-18T11:08:49.607Z,245
2018-04-18T11:09:50.291Z,245
2018-04-18T11:10:50.972Z,245
2018-04-18T11:11:51.652Z,245
2018-04-18T11:12:52.341Z,250
2018-04-18T11:13:53.030Z,255
2018-04-18T11:14:53.720Z,255
2018-04-18T11:15:54.398Z,250
2018-04-18T11:16:55.074Z,255
2018-04-18T11:17:55.758Z,260
2018-04-18T11:18:56.441Z,260
2018-04-18T11:19:57.119Z,265
2018-04-18T11:20:57.798Z,265
2018-04-18T11:21:58.481Z,270
2018-04-18T11:22:59.165Z,275
2018-04-18T11:23:59.847Z,275
2018-04-18T11:25:00.529Z,280
2018-04-18T11:26:01.217Z,285
2018-04-18T11:27:01.911Z,290
2018-04-18T11:28:02.589Z,295
2018-04-18T11:29:03.275Z,295
2018-04-18T11:30:03.954Z,295
2018-04-18T11:31:04.641Z,305
2018-04-18T11:32:05.326Z,1460
2018-04-18T11:33:06.009Z,3050
2018-04-18T11:34:06.690Z,2885
2018-04-18T11:35:07.375Z,2855
2018-04-18T11:36:08.064Z,3110
2018-04-18T11:37:08.745Z,3135
2018-04-18T11:38:09.440Z,2960
2018-04-18T11:39:10.128Z,2945
2018-04-18T11:40:10.801Z,2935
2018-04-18T11:41:11.495Z,2935
2018-04-18T11:42:12.181Z,3040
2018-04-18T11:43:12.865Z,3105
2018-04-18T11:44:13.551Z,3140
2018-04-18T11:45:14.238Z,3210
2018-04-18T11:46:14.927Z,3305
2018-04-18T11:47:15.615Z,3285
2018-04-18T11:48:16.308Z,3115
2018-04-18T11:49:16.997Z,3175
2018-04-18T11:50:17.781Z,3140
2018-04-18T11:51:18.470Z,3110
2018-04-18T11:52:19.158Z,2955
2018-04-18T11:53:19.847Z,2805
2018-04-18T11:54:20.535Z,2795
2018-04-18T11:55:21.227Z,2880
2018-04-18T11:56:21.913Z,2875
2018-04-18T11:57:22.603Z,3005
2018-04-18T11:58:23.288Z,2925
2018-04-18T11:59:23.977Z,3070
2018-04-18T12:00:24.668Z,3040
2018-04-18T12:01:25.363Z,3105
2018-04-18T12:02:26.057Z,3085
2018-04-18T12:03:26.757Z,3055
2018-04-18T12:04:27.445Z,3005
2018-04-18T12:05:28.142Z,2880
2018-04-18T12:06:28.842Z,2830
2018-04-18T12:07:29.532Z,2775
2018-04-18T12:08:30.224Z,2625
2018-04-18T12:09:30.916Z,2665
2018-04-18T12:10:31.607Z,2665
2018-04-18T12:11:32.321Z,2560
2018-04-18T12:12:33.001Z,2505
2018-04-18T12:13:33.692Z,2425
2018-04-18T12:14:34.387Z,2580
2018-04-18T12:15:35.077Z,2615
2018-04-18T12:16:35.772Z,2680
2018-04-18T12:17:36.460Z,3005
2018-04-18T12:18:37.152Z,3095
2018-04-18T12:19:37.845Z,3145
2018-04-18T12:20:38.587Z,3295
2018-04-18T12:21:39.228Z,3400
2018-04-18T12:22:39.921Z,3440
2018-04-18T12:23:40.615Z,3620
2018-04-18T12:24:41.308Z,4140
2018-04-18T12:25:42.001Z,4575
2018-04-18T12:26:42.773Z,4630
2018-04-18T12:27:43.436Z,4630
2018-04-18T12:28:44.134Z,4785
2018-04-18T12:29:44.834Z,4645
2018-04-18T12:30:45.527Z,4585
2018-04-18T12:31:46.220Z,4495
2018-04-18T12:32:46.917Z,4265
2018-04-18T12:33:47.640Z,4030
2018-04-18T12:34:48.320Z,3830
2018-04-18T12:35:49.013Z,3765
2018-04-18T12:36:49.708Z,3725
2018-04-18T12:37:50.400Z,3700
2018-04-18T12:38:51.094Z,3740
2018-04-18T12:39:51.795Z,3930
2018-04-18T12:40:52.489Z,4045
2018-04-18T12:41:53.186Z,4185
2018-04-18T12:42:53.880Z,4370
2018-04-18T12:43:54.600Z,4370
2018-04-18T12:44:55.301Z,4340
2018-04-18T12:45:55.995Z,4405
2018-04-18T12:46:56.634Z,4420
2018-04-18T12:47:57.377Z,4340
2018-04-18T12:48:58.141Z,4190
2018-04-18T12:49:58.777Z,4260
2018-04-18T12:50:59.553Z,4075
2018-04-18T12:52:00.249Z,4150
2018-04-18T12:53:00.945Z,4015
2018-04-18T12:54:01.639Z,4210
2018-04-18T12:55:02.349Z,4095
2018-04-18T12:56:03.045Z,4140
2018-04-18T12:57:03.738Z,4185
2018-04-18T12:58:04.437Z,4180
2018-04-18T12:59:05.128Z,4215
2018-04-18T13:00:05.830Z,4270
2018-04-18T13:01:06.482Z,4275
2018-04-18T13:02:07.228Z,4180
2018-04-18T13:03:07.921Z,4135
2018-04-18T13:04:08.620Z,4010
2018-04-18T13:05:09.324Z,3980
2018-04-18T13:06:10.020Z,3980
2018-04-18T13:07:10.714Z,3490
2018-04-18T13:08:11.408Z,2070
2018-04-18T13:09:12.102Z,1400
2018-04-18T13:10:12.799Z,1360
2018-04-18T13:11:13.493Z,1280
2018-04-18T13:12:14.187Z,1275
2018-04-18T13:13:14.876Z,1260
2018-04-18T13:14:15.576Z,1225
2018-04-18T13:15:16.278Z,1210
2018-04-18T13:16:16.962Z,1160
2018-04-18T13:17:17.661Z,1145
2018-04-18T13:18:18.351Z,1120
2018-04-18T13:19:19.044Z,1085
2018-04-18T13:20:19.739Z,1815
2018-04-18T13:21:20.435Z,3250
2018-04-18T13:22:21.130Z,3260
2018-04-18T13:23:21.822Z,2880
2018-04-18T13:24:22.516Z,2590
2018-04-18T13:25:23.246Z,2420
2018-04-18T13:26:23.902Z,2265
2018-04-18T13:27:24.602Z,2425
2018-04-18T13:28:25.295Z,2160
2018-04-18T13:29:25.986Z,1990
2018-04-18T13:30:26.678Z,1835
2018-04-18T13:31:27.370Z,1745
2018-04-18T13:32:28.071Z,1875
2018-04-18T13:33:28.766Z,1815
2018-04-18T13:34:29.462Z,2060
2018-04-18T13:35:30.162Z,1965
2018-04-18T13:36:30.859Z,2080
2018-04-18T13:37:31.552Z,2210
2018-04-18T13:38:32.244Z,2500
2018-04-18T13:39:32.944Z,2550
2018-04-18T13:40:33.639Z,2620
2018-04-18T13:41:34.332Z,2595
2018-04-18T13:42:35.036Z,2590
2018-04-18T13:43:35.731Z,2600
2018-04-18T13:44:36.424Z,2680
2018-04-18T13:45:37.152Z,2605
2018-04-18T13:46:37.848Z,2490
2018-04-18T13:47:38.544Z,2595
2018-04-18T13:48:39.239Z,2650
2018-04-18T13:49:39.940Z,2610
2018-04-18T13:50:40.638Z,2595
2018-04-18T13:51:41.335Z,2490
2018-04-18T13:52:42.033Z,2470
2018-04-18T13:53:42.733Z,2390
2018-04-18T13:54:43.454Z,2390
2018-04-18T13:55:44.128Z,2360
2018-04-18T13:56:44.834Z,2335
2018-04-18T13:57:45.532Z,2375
2018-04-18T13:58:46.451Z,2385
2018-04-18T13:59:47.142Z,2345
2018-04-18T14:00:47.841Z,2380
2018-04-18T14:01:48.538Z,2500
2018-04-18T14:02:49.231Z,2475
2018-04-18T14:03:49.929Z,2485
2018-04-18T14:04:50.628Z,2450
2018-04-18T14:05:51.324Z,2475
2018-04-18T14:06:52.021Z,2415
2018-04-18T14:07:52.764Z,2415
2018-04-18T14:08:53.428Z,2355
2018-04-18T14:09:54.122Z,2440
2018-04-18T14:10:54.825Z,2405
2018-04-18T14:11:55.525Z,2330
2018-04-18T14:12:56.229Z,2295